Milagres, Brazil
Current Conditions -  °F | °C
As of 8:00 PM on Sunday 21 Dec 2014 (Local Time) from SBJU Reporting Station
Scattered Clouds Scattered Clouds  
Wind Chill: 86°   Ceiling: Unl
Heat Index: 89°   Visibility: 6mi
Dew Point: 68°   Wind: 6mph
Humidity: 55%   Direction: 140°SE
Pressure: 29.97"   Gusts: NA
Location:  7.31°S, 38.95°W
Report Text: SBJU 212300Z 14005KT 9999 SCT020 30/20 Q1015
Loading
Personal Weather Stations






























Interactive Weather Map New forecast layout! Learn more

10-Day Weather Forecast

Advertisements
Track Severe Weather on mobile